Time;durP1;ratioP1;P1;durP2;ratioP2;P2;SDS_P1;SDS_P2;PMS_P1;PMS_P2;Temp;Humidity;BMP_temperature;BMP_pressure;BME280_temperature;BME280_humidity;BME280_pressure;Samples;Min_cycle;Max_cycle;Signal;HPM_P1;HPM_P2
2022/07/30 00:02:12;;;;;;;13.68;6.40;;;;;;;30.22;55.35;100599.59;4851152;28;2763093;-28
2022/07/30 00:04:44;;;;;;;15.45;8.07;;;;;;;30.26;57.27;100600.81;5010092;28;70010;-28
2022/07/30 00:07:16;;;;;;;38.85;26.75;;;;;;;30.28;61.63;100590.59;4950645;28;66524;-28
2022/07/30 00:09:47;;;;;;;64.68;47.10;;;;;;;30.42;62.93;100596.69;4949900;28;70226;-27
2022/07/30 00:12:19;;;;;;;73.20;49.58;;;;;;;30.48;65.25;100591.22;5033271;28;66209;-28
2022/07/30 00:14:50;;;;;;;62.03;43.72;;;;;;;30.57;65.91;100605.28;4951223;28;68662;-26
2022/07/30 00:17:21;;;;;;;47.70;32.93;;;;;;;30.63;69.93;100604.38;4951115;28;66154;-28
2022/07/30 00:19:53;;;;;;;;;;;;;;;30.47;73.71;100604.97;4953456;28;69384;-28
2022/07/30 00:22:24;;;;;;;26.70;19.90;;;;;;;30.69;72.32;100592.63;4951905;28;66547;-27
2022/07/30 00:24:56;;;;;;;21.75;18.45;;;;;;;30.80;72.63;100603.81;4948992;28;69431;-30
2022/07/30 00:27:29;;;;;;;;;;;;;;;30.61;73.39;100606.47;4953703;28;66133;-28
2022/07/30 00:30:03;;;;;;;24.95;17.95;;;;;;;30.89;72.68;100613.28;5017972;28;70360;-29
2022/07/30 00:32:35;;;;;;;24.02;17.42;;;;;;;30.72;72.29;100581.34;4947767;28;66403;-28
2022/07/30 00:35:07;;;;;;;30.63;16.77;;;;;;;30.96;72.39;100618.63;4951308;28;70364;-28
2022/07/30 00:37:39;;;;;;;27.17;17.27;;;;;;;30.95;72.28;100612.34;4951709;28;65641;-28
2022/07/30 00:40:11;;;;;;;23.17;15.15;;;;;;;31.02;69.50;100607.69;5022614;28;70111;-30
2022/07/30 00:42:45;;;;;;;18.13;15.20;;;;;;;31.09;69.03;100610.31;5001609;28;66289;-29
2022/07/30 00:45:17;;;;;;;14.45;12.60;;;;;;;30.86;67.94;100551.44;5011208;28;70096;-27
2022/07/30 00:47:49;;;;;;;14.90;12.88;;;;;;;31.29;67.84;100612.78;4950466;28;66219;-28
2022/07/30 00:50:21;;;;;;;18.20;13.00;;;;;;;31.34;67.41;100615.59;4949337;28;69429;-27
2022/07/30 00:52:52;;;;;;;13.73;12.50;;;;;;;31.39;67.71;100624.72;4964697;28;66297;-30
2022/07/30 00:55:24;;;;;;;14.85;13.38;;;;;;;31.45;67.42;100624.88;4950880;28;68730;-28
2022/07/30 00:57:55;;;;;;;15.07;12.50;;;;;;;31.48;67.12;100622.56;5014568;28;66108;-29
2022/07/30 01:00:27;;;;;;;;;;;;;;;31.23;69.99;100624.50;5014587;28;70332;-29
2022/07/30 01:03:01;;;;;;;14.10;12.77;;;;;;;31.58;66.99;100611.94;4953373;28;65977;-29
2022/07/30 01:05:33;;;;;;;13.82;12.52;;;;;;;31.64;66.71;100614.78;4954226;28;70676;-28
2022/07/30 01:08:04;;;;;;;13.02;11.57;;;;;;;31.66;66.38;100612.69;5020002;28;65337;-28
2022/07/30 01:10:36;;;;;;;14.18;12.70;;;;;;;31.73;66.31;100632.38;5014667;28;69467;-29
2022/07/30 01:13:08;;;;;;;12.73;11.48;;;;;;;31.77;66.16;100637.13;4946939;28;65839;-30
2022/07/30 01:15:39;;;;;;;;;;;;;;;31.46;68.34;100646.34;4964689;28;69610;-29
2022/07/30 01:18:13;;;;;;;12.90;11.63;;;;;;;31.32;65.73;100560.81;5021625;28;67102;-29
2022/07/30 01:21:06;;;;;;;12.13;10.95;;;;;;;31.78;66.90;100649.59;4952960;28;70061;-28
2022/07/30 01:23:45;;;;;;;12.05;11.05;;;;;;;31.90;65.97;100652.38;4947549;28;65565;-30
2022/07/30 01:26:19;;;;;;;12.43;11.15;;;;;;;31.66;65.39;100602.66;4960772;28;70035;-29
2022/07/30 01:28:55;;;;;;;12.07;10.95;;;;;;;31.64;65.23;100598.53;4965903;28;65214;-28
2022/07/30 01:31:27;;;;;;;11.15;10.20;;;;;;;32.01;65.04;100651.59;4959485;28;70204;-28
2022/07/30 01:34:01;;;;;;;12.48;10.40;;;;;;;32.01;64.91;100646.16;5021693;28;66104;-30
2022/07/30 01:36:33;;;;;;;12.05;10.98;;;;;;;32.06;65.01;100664.44;4952033;28;70441;-28
2022/07/30 01:39:06;;;;;;;11.32;10.43;;;;;;;32.09;64.73;100660.44;5013429;28;66400;-29
2022/07/30 01:41:39;;;;;;;12.25;10.60;;;;;;;32.13;64.52;100661.63;5035011;28;69532;-32
2022/07/30 01:44:13;;;;;;;12.35;11.13;;;;;;;32.00;64.27;100639.06;5017831;28;66005;-28
2022/07/30 01:46:55;;;;;;;11.55;10.43;;;;;;;31.85;64.01;100616.16;5037417;28;69982;-27
2022/07/30 01:49:28;;;;;;;10.73;9.55;;;;;;;32.24;63.89;100674.38;4961458;28;65966;-30
2022/07/30 01:52:02;;;;;;;10.20;9.50;;;;;;;31.86;63.97;100607.75;5017859;28;70277;-29
2022/07/30 01:54:35;;;;;;;10.70;9.98;;;;;;;32.28;63.98;100665.53;5016715;28;66217;-29
2022/07/30 01:57:09;;;;;;;11.35;10.15;;;;;;;32.32;63.80;100660.47;5016831;28;69762;-32
2022/07/30 01:59:43;;;;;;;10.52;9.80;;;;;;;32.37;64.10;100667.88;5016853;28;66045;-28
2022/07/30 02:02:14;;;;;;;11.75;10.63;;;;;;;32.31;63.75;100653.38;5011695;28;70148;-28
2022/07/30 02:04:47;;;;;;;10.75;9.95;;;;;;;32.42;63.49;100668.84;5033065;28;66183;-28
2022/07/30 02:07:35;;;;;;;;;;;;;;;32.11;64.67;100664.56;5018355;28;69099;-30
2022/07/30 02:10:27;;;;;;;10.20;9.20;;;;;;;32.39;64.26;100650.31;5011617;28;66101;-28
2022/07/30 02:13:05;;;;;;;9.88;9.18;;;;;;;32.37;63.49;100635.31;5014759;28;70285;-28
2022/07/30 02:16:11;;;;;;;9.82;9.13;;;;;;;32.40;63.62;100646.56;4954291;28;65096;-28
2022/07/30 02:19:11;;;;;;;10.80;9.73;;;;;;;32.55;63.46;100648.00;4987223;28;69307;-29
2022/07/30 02:21:47;;;;;;;9.95;9.25;;;;;;;32.25;63.05;100606.28;5009819;28;67389;-29
2022/07/30 02:24:25;;;;;;;11.18;9.90;;;;;;;32.56;63.19;100645.03;4950172;28;70026;-29
2022/07/30 02:27:06;;;;;;;9.80;9.15;;;;;;;32.65;63.08;100653.63;5028173;28;66372;-28
2022/07/30 02:29:38;;;;;;;10.40;9.50;;;;;;;32.65;63.06;100646.31;4946923;28;70063;-29
2022/07/30 02:32:15;;;;;;;10.30;9.35;;;;;;;32.38;62.76;100588.94;5018234;28;66451;-28
2022/07/30 02:34:56;;;;;;;9.68;8.98;;;;;;;32.36;62.78;100591.06;5012515;28;70328;-28
2022/07/30 02:37:31;;;;;;;12.30;8.77;;;;;;;32.10;62.66;100542.72;5025634;28;65612;-30
2022/07/30 02:40:16;;;;;;;11.73;9.35;;;;;;;32.76;62.67;100650.06;4954571;28;69980;-29
2022/07/30 02:42:49;;;;;;;9.40;8.88;;;;;;;32.67;62.28;100624.34;4955112;28;65969;-28
2022/07/30 02:45:24;;;;;;;10.25;9.38;;;;;;;32.76;62.11;100625.63;5036170;28;70385;-28
2022/07/30 02:48:06;;;;;;;9.80;9.00;;;;;;;32.85;62.56;100632.34;5034147;28;65330;-29
2022/07/30 02:50:40;;;;;;;13.77;9.55;;;;;;;32.89;62.31;100638.94;5016448;28;70822;-29
2022/07/30 02:53:15;;;;;;;9.63;8.95;;;;;;;32.54;62.23;100575.72;4952449;28;66803;-28
2022/07/30 02:55:48;;;;;;;9.98;9.27;;;;;;;32.91;62.12;100631.38;4965474;28;70055;-30
2022/07/30 02:58:23;;;;;;;10.18;9.35;;;;;;;32.94;62.10;100630.91;5015292;28;66421;-29
2022/07/30 03:00:56;;;;;;;10.38;9.57;;;;;;;32.93;61.99;100631.13;5035873;28;70421;-27
2022/07/30 03:03:28;;;;;;;10.80;9.93;;;;;;;32.97;61.79;100634.22;5014737;28;66563;-29
2022/07/30 03:06:01;;;;;;;10.40;9.50;;;;;;;32.99;61.67;100629.34;4975050;28;70494;-30
2022/07/30 03:08:33;;;;;;;10.25;9.38;;;;;;;33.00;61.74;100631.03;4945197;28;66686;-30
2022/07/30 03:11:06;;;;;;;11.05;9.52;;;;;;;33.00;61.70;100628.31;5016961;28;69735;-29
2022/07/30 03:13:37;;;;;;;10.68;8.82;;;;;;;33.00;61.69;100620.19;5012103;28;66902;-29
2022/07/30 03:16:12;;;;;;;10.25;9.50;;;;;;;33.03;61.66;100625.13;4960838;28;69630;-29
2022/07/30 03:18:44;;;;;;;10.70;9.35;;;;;;;33.00;61.50;100614.75;4945980;28;66353;-28
2022/07/30 03:21:19;;;;;;;10.25;9.55;;;;;;;33.07;61.67;100618.13;4958461;28;70552;-29
2022/07/30 03:23:52;;;;;;;10.25;9.52;;;;;;;33.08;61.47;100609.75;4949111;28;67130;-29
2022/07/30 03:26:26;;;;;;;10.90;9.77;;;;;;;32.84;61.69;100570.91;4953788;28;69472;-29
2022/07/30 03:28:58;;;;;;;10.50;9.35;;;;;;;33.07;61.25;100612.69;4954753;28;65657;-29
2022/07/30 03:31:30;;;;;;;10.27;9.38;;;;;;;33.11;61.47;100622.03;4953358;28;69933;-28
2022/07/30 03:34:08;;;;;;;10.77;9.85;;;;;;;32.99;61.21;100603.03;4948023;28;66693;-29
2022/07/30 03:36:43;;;;;;;11.07;9.93;;;;;;;33.06;61.21;100605.63;5031531;28;70427;-28
2022/07/30 03:39:16;;;;;;;11.20;9.35;;;;;;;33.09;61.57;100591.53;4947641;28;66075;-29
2022/07/30 03:41:48;;;;;;;10.10;9.30;;;;;;;33.17;61.35;100607.47;4946647;28;69163;-28
2022/07/30 03:44:21;;;;;;;11.02;10.05;;;;;;;33.18;61.28;100614.53;5011868;28;65551;-29
2022/07/30 03:46:56;;;;;;;10.52;9.82;;;;;;;33.20;61.66;100612.41;5004803;28;70211;-28
2022/07/30 03:49:28;;;;;;;10.57;9.52;;;;;;;33.20;61.45;100598.81;4995832;28;66445;-30
2022/07/30 03:52:00;;;;;;;;;;;;;;;32.87;62.34;100608.47;4953737;28;69981;-28
2022/07/30 03:54:33;;;;;;;10.55;9.55;;;;;;;33.21;61.56;100602.34;5017998;28;66631;-29
2022/07/30 03:57:22;;;;;;;11.57;10.43;;;;;;;33.20;61.40;100600.72;4951876;28;70550;-29
2022/07/30 03:59:54;;;;;;;11.63;9.98;;;;;;;33.25;61.77;100609.78;4956759;28;65888;-28
2022/07/30 04:02:25;;;;;;;10.38;9.32;;;;;;;33.28;61.35;100597.63;5011962;28;69773;-31
2022/07/30 04:05:17;;;;;;;;;;;;;;;32.94;62.08;100582.00;5017651;28;65402;-30
2022/07/30 04:07:50;;;;;;;10.32;9.35;;;;;;;33.25;61.60;100577.19;5020804;28;70932;-31
2022/07/30 04:10:22;;;;;;;9.90;9.10;;;;;;;33.33;61.28;100575.97;5016624;28;66144;-30
2022/07/30 04:13:00;;;;;;;10.05;9.10;;;;;;;33.34;61.46;100574.88;4945430;28;70746;-30
2022/07/30 04:16:01;;;;;;;10.95;9.38;;;;;;;33.29;61.23;100556.59;5012539;28;66335;-29
2022/07/30 04:18:58;;;;;;;9.82;8.73;;;;;;;33.09;60.97;100513.56;5012044;28;71003;-29
2022/07/30 04:21:32;;;;;;;10.35;9.25;;;;;;;33.41;60.87;100559.25;5010602;28;66186;-28
2022/07/30 04:24:05;;;;;;;9.75;8.82;;;;;;;33.38;61.03;100560.56;5018901;28;70249;-30
2022/07/30 04:26:38;;;;;;;9.85;8.95;;;;;;;33.44;60.48;100555.22;4949424;28;66001;-29
2022/07/30 04:29:11;;;;;;;9.55;8.65;;;;;;;33.50;60.76;100559.66;5017870;28;70500;-29
2022/07/30 04:31:48;;;;;;;11.13;8.73;;;;;;;33.50;60.91;100559.66;5019419;28;66252;-28
2022/07/30 04:34:49;;;;;;;9.15;8.55;;;;;;;33.40;60.68;100546.72;4952398;28;69714;-28
2022/07/30 04:37:40;;;;;;;9.77;8.98;;;;;;;33.56;60.39;100556.00;4949950;28;66681;-30
2022/07/30 04:40:11;;;;;;;9.55;8.80;;;;;;;33.56;60.49;100558.72;5015325;28;68940;-29
2022/07/30 04:42:43;;;;;;;10.80;9.32;;;;;;;33.60;60.23;100557.16;5017532;28;66180;-29
2022/07/30 04:45:14;;;;;;;8.93;8.32;;;;;;;33.61;60.59;100563.41;5022275;28;68941;-29
2022/07/30 04:47:52;;;;;;;10.80;9.00;;;;;;;33.65;60.31;100554.50;5015995;28;66349;-30
2022/07/30 04:50:46;;;;;;;9.88;8.80;;;;;;;33.32;60.29;100515.34;4952640;28;69972;-30
2022/07/30 04:53:21;;;;;;;10.02;9.10;;;;;;;33.68;60.23;100558.63;5022869;28;66566;-30
2022/07/30 04:55:58;;;;;;;11.13;10.05;;;;;;;33.49;60.82;100560.72;5022556;28;69429;-30
2022/07/30 04:58:34;;;;;;;13.68;9.82;;;;;;;33.19;59.15;100556.41;5019067;28;66798;-31
2022/07/30 05:01:05;;;;;;;10.00;9.30;;;;;;;32.93;58.28;100563.22;5013918;28;70327;-30
2022/07/30 05:03:39;;;;;;;9.80;8.90;;;;;;;32.69;57.33;100554.31;5025316;28;66296;-30
2022/07/30 05:06:12;;;;;;;8.43;7.72;;;;;;;32.04;56.66;100477.47;5017347;28;69791;-29
2022/07/30 05:08:45;;;;;;;8.95;8.35;;;;;;;32.29;56.41;100552.38;5017364;28;66026;-28
2022/07/30 05:11:16;;;;;;;;;;;;;;;31.87;56.14;100552.44;5034546;28;70498;-29
2022/07/30 05:13:48;;;;;;;8.05;7.40;;;;;;;31.66;55.09;100482.53;5014314;28;65019;-29
2022/07/30 05:16:23;;;;;;;8.60;7.93;;;;;;;31.97;54.12;100541.88;5021228;28;70315;-30
2022/07/30 05:18:57;;;;;;;8.00;7.50;;;;;;;31.78;54.03;100524.03;4956628;28;66333;-29
2022/07/30 05:21:28;;;;;;;7.65;7.18;;;;;;;31.64;53.59;100522.59;4994360;28;69771;-30
2022/07/30 05:24:00;;;;;;;6.97;6.47;;;;;;;31.72;52.82;100535.81;5016161;28;66368;-29
2022/07/30 05:26:37;;;;;;;7.18;6.60;;;;;;;31.66;52.16;100536.75;5033288;28;70244;-28
2022/07/30 05:29:11;;;;;;;6.63;6.03;;;;;;;31.65;52.86;100502.56;5018747;28;65886;-30
2022/07/30 05:32:11;;;;;;;6.20;5.65;;;;;;;31.86;51.62;100525.56;4952536;28;70684;-30
2022/07/30 05:34:44;;;;;;;6.30;5.28;;;;;;;31.90;50.65;100524.03;5014842;28;65380;-28
2022/07/30 05:37:19;;;;;;;6.35;5.95;;;;;;;31.92;49.67;100520.06;5008864;28;70737;-28
2022/07/30 05:39:51;;;;;;;6.50;6.13;;;;;;;31.91;49.18;100518.41;5016699;28;65098;-29
2022/07/30 05:42:37;;;;;;;6.30;5.90;;;;;;;31.93;48.08;100510.88;4951298;28;69603;-30
2022/07/30 05:45:10;;;;;;;6.22;5.82;;;;;;;31.94;46.88;100496.25;5020717;28;65670;-29
2022/07/30 05:47:42;;;;;;;6.47;6.00;;;;;;;31.94;46.90;100490.81;5030068;28;70494;-29
2022/07/30 05:50:14;;;;;;;5.07;4.78;;;;;;;31.85;47.06;100473.22;5016403;28;66439;-28
2022/07/30 05:52:45;;;;;;;5.95;5.55;;;;;;;31.93;46.59;100480.19;5024007;28;69795;-29
2022/07/30 05:55:55;;;;;;;5.65;5.28;;;;;;;31.93;46.03;100467.47;4962505;28;65644;-29
2022/07/30 05:58:44;;;;;;;5.70;5.30;;;;;;;31.93;46.09;100466.63;4952548;28;69737;-30
2022/07/30 06:01:20;;;;;;;5.82;5.43;;;;;;;31.93;45.01;100461.19;5011754;28;66394;-28
2022/07/30 06:03:53;;;;;;;5.32;5.03;;;;;;;31.92;44.43;100463.09;5019007;28;70159;-29
2022/07/30 06:06:47;;;;;;;5.15;4.85;;;;;;;31.86;44.69;100450.44;5019561;28;65872;-28
2022/07/30 06:09:18;;;;;;;;;;;;;;;31.61;44.09;100451.50;5027822;28;70446;-28
2022/07/30 06:12:06;;;;;;;5.43;5.03;;;;;;;31.86;43.61;100442.31;5018994;28;65482;-28
2022/07/30 06:14:38;;;;;;;5.50;5.05;;;;;;;31.87;44.14;100435.81;5026140;28;70465;-27
2022/07/30 06:17:13;;;;;;;5.45;5.05;;;;;;;31.59;43.80;100385.88;5005141;28;66328;-28
2022/07/30 06:20:09;;;;;;;5.60;5.30;;;;;;;31.90;44.00;100423.66;4957461;28;69894;-29
2022/07/30 06:23:09;;;;;;;6.25;5.78;;;;;;;31.88;43.29;100428.53;4949546;28;66547;-28
2022/07/30 06:26:15;;;;;;;5.60;5.20;;;;;;;31.71;43.48;100393.19;4970606;28;69545;-28
2022/07/30 06:28:47;;;;;;;8.50;5.50;;;;;;;31.90;43.74;100405.53;4953058;28;65986;-29
2022/07/30 06:31:29;;;;;;;5.80;5.38;;;;;;;31.82;42.80;100378.78;5019435;28;70179;-28
2022/07/30 06:34:01;;;;;;;5.38;5.07;;;;;;;31.88;43.26;100385.94;5014337;28;65919;-29
2022/07/30 06:36:39;;;;;;;4.85;4.55;;;;;;;31.92;42.69;100395.28;5017356;28;69712;-31
2022/07/30 06:39:19;;;;;;;8.00;5.18;;;;;;;31.91;42.66;100387.38;4954053;28;65465;-28
2022/07/30 06:42:29;;;;;;;5.70;5.30;;;;;;;31.89;42.11;100384.88;4952201;28;69219;-28
2022/07/30 06:45:23;;;;;;;5.28;4.88;;;;;;;31.94;42.18;100387.72;4971873;28;65521;-28
2022/07/30 06:48:14;;;;;;;5.77;5.37;;;;;;;31.90;42.45;100370.28;4952162;28;69849;-30
2022/07/30 06:50:46;;;;;;;5.05;4.65;;;;;;;31.93;42.12;100377.97;5019982;28;66327;-29
2022/07/30 06:53:18;;;;;;;5.22;4.93;;;;;;;31.93;41.60;100377.97;5021602;28;70098;-29
2022/07/30 06:56:07;;;;;;;5.07;4.78;;;;;;;31.95;41.91;100367.66;4950906;28;65453;-28
2022/07/30 06:58:49;;;;;;;5.88;5.25;;;;;;;31.93;41.89;100358.97;5012820;28;70053;-30
2022/07/30 07:01:38;;;;;;;5.35;5.05;;;;;;;31.96;41.88;100358.47;4953464;28;65266;-28
2022/07/30 07:04:10;;;;;;;5.40;5.05;;;;;;;31.92;41.83;100349.16;5015485;28;70231;-29
2022/07/30 07:06:41;;;;;;;;;;;;;;;31.71;41.43;100339.75;5017531;28;65599;-29
2022/07/30 07:09:18;;;;;;;5.38;4.90;;;;;;;31.90;41.18;100334.16;5022000;28;70569;-32
2022/07/30 07:12:00;;;;;;;5.85;5.35;;;;;;;31.97;41.31;100340.31;5017079;28;65869;-28
2022/07/30 07:14:31;;;;;;;5.00;4.70;;;;;;;31.95;40.79;100337.81;4961545;28;68856;-30
2022/07/30 07:17:03;;;;;;;5.57;5.07;;;;;;;31.99;40.94;100343.63;4952819;28;66361;-30
2022/07/30 07:20:08;;;;;;;5.85;5.35;;;;;;;32.00;40.76;100331.69;4963300;28;70295;-29
2022/07/30 07:22:47;;;;;;;5.60;5.22;;;;;;;31.98;40.52;100323.81;4949317;28;65847;-29
2022/07/30 07:25:19;;;;;;;7.40;5.47;;;;;;;32.00;40.52;100323.56;5018250;28;69754;-28
2022/07/30 07:27:50;;;;;;;6.00;5.57;;;;;;;32.03;41.42;100315.75;5018058;28;66061;-28
2022/07/30 07:30:45;;;;;;;6.20;5.60;;;;;;;32.11;41.47;100311.00;5012401;28;70061;-28
2022/07/30 07:33:18;;;;;;;5.72;5.22;;;;;;;32.10;41.95;100309.38;4998496;28;66218;-29
2022/07/30 07:35:50;;;;;;;6.18;5.78;;;;;;;32.08;41.43;100306.91;4996978;28;70745;-30
2022/07/30 07:38:28;;;;;;;5.78;5.30;;;;;;;32.02;41.23;100281.56;5016337;28;66829;-28
2022/07/30 07:41:00;;;;;;;6.03;5.43;;;;;;;32.13;41.58;100284.47;5019303;28;70182;-28
2022/07/30 07:43:32;;;;;;;;;;;;;;;31.87;41.01;100294.78;4951695;28;65619;-30
2022/07/30 07:46:03;;;;;;;9.98;5.18;;;;;;;32.11;41.74;100279.28;5017826;28;69300;-29
2022/07/30 07:48:38;;;;;;;6.85;5.50;;;;;;;32.25;41.69;100285.22;5013308;28;66193;-28
2022/07/30 07:51:35;;;;;;;8.35;5.68;;;;;;;32.31;41.98;100280.72;5011341;28;69202;-29
2022/07/30 07:54:21;;;;;;;6.38;5.57;;;;;;;32.26;41.84;100276.00;5015123;28;66320;-28
2022/07/30 07:56:55;;;;;;;8.32;5.63;;;;;;;32.32;42.78;100275.03;5017999;28;70100;-29
2022/07/30 07:59:34;;;;;;;6.63;5.88;;;;;;;32.43;43.30;100270.59;5033055;28;66262;-28
2022/07/30 08:02:26;;;;;;;18.25;5.40;;;;;;;32.59;43.78;100280.69;5012247;28;71212;-29
2022/07/30 08:05:07;;;;;;;11.10;5.78;;;;;;;32.72;44.01;100279.53;5033574;28;66529;-29
2022/07/30 08:07:52;;;;;;;11.32;5.60;;;;;;;32.84;44.28;100282.97;5022162;28;69488;-30
2022/07/30 08:10:56;;;;;;;12.27;5.60;;;;;;;32.97;44.65;100279.09;4971756;28;66322;-29
2022/07/30 08:13:53;;;;;;;5.57;5.18;;;;;;;33.06;44.88;100274.09;4971113;28;70193;-29
2022/07/30 08:16:44;;;;;;;5.57;5.03;;;;;;;33.17;45.07;100273.16;4952181;28;66313;-29
2022/07/30 08:19:35;;;;;;;6.93;6.40;;;;;;;33.10;48.88;100261.69;5022369;28;70193;-30
2022/07/30 08:22:17;;;;;;;7.40;6.70;;;;;;;33.02;54.67;100257.47;5030658;28;65818;-30
2022/07/30 08:24:49;;;;;;;14.20;7.60;;;;;;;33.11;56.74;100271.47;5018827;28;70437;-30
2022/07/30 08:27:20;;;;;;;11.68;8.05;;;;;;;33.07;57.60;100259.44;5021066;28;65620;-30
2022/07/30 08:29:52;;;;;;;7.70;7.05;;;;;;;33.12;58.51;100273.91;4998574;28;70884;-31
2022/07/30 08:32:24;;;;;;;12.95;7.43;;;;;;;33.16;59.05;100268.81;5016058;28;65386;-29
2022/07/30 08:34:55;;;;;;;;;;;;;;;32.91;60.54;100278.22;5018015;28;70295;-31
2022/07/30 08:37:26;;;;;;;7.70;7.18;;;;;;;33.19;59.93;100278.38;4953345;28;66214;-30
2022/07/30 08:39:58;;;;;;;8.80;7.25;;;;;;;33.20;60.39;100283.53;4989466;28;70042;-30
2022/07/30 08:42:30;;;;;;;8.35;7.55;;;;;;;33.24;60.51;100284.69;5033691;28;66070;-29
2022/07/30 08:45:02;;;;;;;7.60;6.63;;;;;;;33.28;61.03;100287.72;5020081;28;69255;-29
2022/07/30 08:47:35;;;;;;;11.55;7.43;;;;;;;33.31;61.06;100293.47;5012708;28;65122;-30
2022/07/30 08:50:22;;;;;;;7.95;7.32;;;;;;;33.32;61.85;100278.84;5016813;28;69569;-31
2022/07/30 08:53:12;;;;;;;7.78;7.05;;;;;;;33.32;62.09;100273.41;5029333;28;66231;-29
2022/07/30 08:55:45;;;;;;;8.95;7.70;;;;;;;33.42;62.21;100271.88;5014362;28;69991;-30
2022/07/30 08:58:32;;;;;;;8.18;7.38;;;;;;;33.42;62.73;100269.16;5012550;28;65275;-29
2022/07/30 09:01:05;;;;;;;9.45;7.85;;;;;;;33.51;63.13;100254.03;5014776;28;70095;-30
2022/07/30 09:03:40;;;;;;;8.05;7.38;;;;;;;33.54;63.58;100264.44;4950045;28;66287;-30
2022/07/30 09:06:14;;;;;;;7.72;7.13;;;;;;;33.52;63.31;100255.69;4953256;28;70409;-29
2022/07/30 09:08:46;;;;;;;7.45;6.75;;;;;;;33.51;63.46;100259.47;5008349;28;66370;-29
2022/07/30 09:11:18;;;;;;;8.63;7.45;;;;;;;33.53;63.07;100241.03;5023153;28;70018;-30
2022/07/30 09:13:50;;;;;;;;;;;;;;;33.47;63.57;100266.50;4957941;28;66445;-30
2022/07/30 09:16:25;;;;;;;10.90;6.95;;;;;;;33.49;61.49;100207.22;5020541;28;70218;-29
2022/07/30 09:19:18;;;;;;;10.43;7.18;;;;;;;33.59;61.24;100207.38;5016374;28;66285;-30
2022/07/30 09:22:01;;;;;;;11.38;8.02;;;;;;;33.77;60.90;100215.22;5020165;28;70533;-29
2022/07/30 09:25:01;;;;;;;7.63;6.83;;;;;;;34.17;60.09;100254.81;4970168;28;66494;-28
2022/07/30 09:27:58;;;;;;;7.35;6.75;;;;;;;34.24;59.40;100251.88;4953490;28;70297;-29
2022/07/30 09:31:08;;;;;;;8.45;6.68;;;;;;;34.01;59.37;100212.19;5003202;28;66522;-30
2022/07/30 09:33:57;;;;;;;7.03;6.53;;;;;;;34.36;59.18;100270.78;4990835;28;69215;-29
2022/07/30 09:37:18;;;;;;;10.93;6.60;;;;;;;33.72;59.26;100168.09;4975097;28;66596;-29
2022/07/30 09:40:16;;;;;;;7.28;6.57;;;;;;;34.33;58.85;100254.97;4952182;28;70264;-29
2022/07/30 09:43:09;;;;;;;8.80;6.75;;;;;;;34.45;58.67;100274.66;4953233;28;66132;-29
2022/07/30 09:45:52;;;;;;;7.97;7.28;;;;;;;34.47;59.09;100280.69;5013008;28;70017;-29
2022/07/30 09:48:28;;;;;;;8.10;7.30;;;;;;;34.53;59.32;100314.25;5016015;28;66296;-29
2022/07/30 09:50:59;;;;;;;7.95;7.22;;;;;;;34.53;58.93;100317.78;5017457;28;69427;-29
2022/07/30 09:53:31;;;;;;;13.02;7.20;;;;;;;34.54;59.40;100327.56;4953527;28;66147;-30
2022/07/30 09:56:27;;;;;;;13.02;8.50;;;;;;;34.44;60.15;100300.28;4951826;28;70634;-29
2022/07/30 09:59:01;;;;;;;17.42;8.65;;;;;;;34.56;59.69;100295.50;4949374;28;66370;-29
2022/07/30 10:01:53;;;;;;;21.23;10.10;;;;;;;34.12;60.21;100222.09;5002526;28;69813;-29
2022/07/30 10:04:47;;;;;;;25.92;11.90;;;;;;;34.52;59.94;100264.41;4951536;28;66293;-29
2022/07/30 10:07:21;;;;;;;28.05;10.85;;;;;;;34.34;59.43;100240.28;4950664;28;68976;-28
2022/07/30 10:09:59;;;;;;;19.23;12.40;;;;;;;34.56;59.06;100276.44;4973701;28;65290;-30
2022/07/30 10:12:37;;;;;;;25.50;12.32;;;;;;;34.56;58.71;100265.53;5020692;28;69603;-30
2022/07/30 10:15:10;;;;;;;25.88;11.70;;;;;;;34.57;58.52;100237.22;5024050;28;66052;-29
2022/07/30 10:17:42;;;;;;;21.65;11.70;;;;;;;34.56;58.25;100232.84;4951024;28;70393;-29
2022/07/30 10:20:27;;;;;;;29.10;11.80;;;;;;;34.54;58.74;100229.53;5020657;28;65674;-29
2022/07/30 10:23:40;;;;;;;25.45;11.27;;;;;;;34.53;58.06;100254.31;5010889;28;69693;-30
2022/07/30 10:26:33;;;;;;;20.63;11.95;;;;;;;34.55;58.18;100282.09;5008587;28;66077;-29
2022/07/30 10:29:37;;;;;;;26.35;12.00;;;;;;;34.52;58.02;100313.41;4947744;28;69773;-30
2022/07/30 10:32:11;;;;;;;22.88;11.10;;;;;;;34.52;58.33;100346.09;4951417;28;66184;-30
2022/07/30 10:34:44;;;;;;;21.45;11.48;;;;;;;34.21;58.45;100302.25;4952631;28;70402;-31
2022/07/30 10:37:19;;;;;;;16.25;10.73;;;;;;;34.41;58.03;100333.47;4954154;28;65881;-30
2022/07/30 10:40:00;;;;;;;14.65;10.23;;;;;;;34.47;58.17;100359.66;4946534;28;70268;-30
2022/07/30 10:42:55;;;;;;;18.92;10.70;;;;;;;34.43;58.55;100372.13;4957459;28;65858;-29
2022/07/30 10:45:35;;;;;;;14.70;10.32;;;;;;;34.16;59.39;100364.78;4954134;28;70066;-29
2022/07/30 10:48:18;;;;;;;19.85;11.88;;;;;;;33.46;58.85;100294.75;4949930;28;66553;-32
2022/07/30 10:50:56;;;;;;;12.52;11.18;;;;;;;33.71;60.28;100365.00;4951156;28;69737;-31
2022/07/30 10:53:37;;;;;;;18.15;11.38;;;;;;;33.71;61.31;100389.47;4955103;28;64705;-31
2022/07/30 10:56:27;;;;;;;15.45;11.82;;;;;;;33.53;62.10;100377.81;4950376;28;69906;-31
2022/07/30 10:58:58;;;;;;;12.80;11.50;;;;;;;33.64;62.58;100384.22;4959632;28;67163;-30
2022/07/30 11:01:51;;;;;;;12.02;10.93;;;;;;;33.52;63.16;100383.50;4956149;28;70988;-30
2022/07/30 11:04:25;;;;;;;13.70;11.57;;;;;;;33.58;63.43;100390.69;4954931;28;65852;-31
2022/07/30 11:07:23;;;;;;;14.38;11.82;;;;;;;33.48;63.69;100385.06;4954181;28;70612;-30
2022/07/30 11:09:59;;;;;;;17.60;11.32;;;;;;;33.17;63.74;100321.28;4953078;28;65546;-29
2022/07/30 11:12:46;;;;;;;12.27;11.02;;;;;;;33.54;63.98;100384.09;4954791;28;70540;-31
2022/07/30 11:15:22;;;;;;;13.20;11.90;;;;;;;33.53;64.03;100393.31;4953384;28;64886;-33
2022/07/30 11:18:05;;;;;;;12.30;11.20;;;;;;;33.46;64.19;100387.19;4952283;28;69895;-31
2022/07/30 11:21:02;;;;;;;13.17;11.03;;;;;;;33.48;64.41;100404.91;4959103;28;66666;-30
2022/07/30 11:23:39;;;;;;;12.65;11.45;;;;;;;33.41;64.35;100398.03;4954798;28;70624;-30
2022/07/30 11:26:10;;;;;;;15.52;11.55;;;;;;;33.47;64.54;100406.00;4952453;28;65749;-29
2022/07/30 11:28:46;;;;;;;12.50;11.40;;;;;;;33.47;64.29;100411.44;5017026;28;70279;-30
2022/07/30 11:31:35;;;;;;;13.32;11.85;;;;;;;33.41;64.64;100396.13;5017232;28;66125;-30
2022/07/30 11:34:27;;;;;;;16.10;12.40;;;;;;;33.42;65.11;100396.94;4952434;28;69832;-30
2022/07/30 11:37:05;;;;;;;11.93;10.80;;;;;;;33.38;65.93;100402.88;4952938;28;65821;-30
2022/07/30 11:39:57;;;;;;;13.30;11.70;;;;;;;33.38;66.09;100405.59;5023977;28;70394;-28
2022/07/30 11:42:33;;;;;;;18.45;13.27;;;;;;;33.38;66.44;100413.75;4955115;28;65424;-29
2022/07/30 11:45:17;;;;;;;15.27;12.68;;;;;;;33.35;66.36;100419.69;4952661;28;70282;-33
2022/07/30 11:47:55;;;;;;;18.23;12.48;;;;;;;33.42;66.38;100424.13;4950868;28;65304;-28
2022/07/30 11:50:28;;;;;;;13.43;12.20;;;;;;;33.37;66.64;100425.69;4951134;28;70690;-31
2022/07/30 11:53:02;;;;;;;17.42;10.98;;;;;;;33.51;65.50;100447.09;5013620;28;65967;-31
2022/07/30 11:55:41;;;;;;;19.02;12.20;;;;;;;32.88;64.87;100324.88;5014494;28;70207;-30
2022/07/30 11:58:25;;;;;;;12.20;10.32;;;;;;;33.56;64.40;100420.03;4950940;28;66108;-29
2022/07/30 12:01:26;;;;;;;15.98;11.10;;;;;;;33.34;63.66;100363.66;4947241;28;70128;-29
2022/07/30 12:04:01;;;;;;;15.52;11.30;;;;;;;33.79;63.36;100444.31;4947995;28;66528;-29
2022/07/30 12:06:35;;;;;;;13.85;10.43;;;;;;;33.85;62.97;100461.53;4954691;28;70182;-29
2022/07/30 12:09:07;;;;;;;11.25;10.38;;;;;;;33.87;62.77;100464.78;4947710;28;66570;-28
2022/07/30 12:11:39;;;;;;;12.80;11.38;;;;;;;33.92;62.49;100486.63;4950144;28;69957;-30
2022/07/30 12:14:12;;;;;;;18.42;9.90;;;;;;;33.92;62.33;100496.69;4954757;28;66280;-31
2022/07/30 12:16:49;;;;;;;16.88;10.48;;;;;;;33.57;61.54;100438.81;4948596;28;69978;-29